CheckWX is a tool to help pilots better visualize weather data.  It is not intended as a substitute for an official pre-flight weather briefing.

00:29:03 UTC

KTCM METAR
McChord Field (Joint Base Lewis-McChord) Airport
Tacoma, Washington, USA
Current

31 mins ago

KTCM 162358Z AUTO 16007KT 10SM BKN037 OVC075 17/14 A2983 RMK AO2 SLP105 60003 T01740137 10196 20154 53003 $
Observed
Sep-16 @ 23:58 UTC
Wind
  • 160° at 7 KTS
Visibility
10 SM
Flight Rules
VFR
Cloud Levels
  • Broken at 3,700' AGL
  • Overcast at 7,500' AGL
Temperature
17°C / 63°F
Dewpoint
14°C / 57°F
Humidity
83%
Altimeter
29.83" Hg
Pressure
1010.12 hPa
Previous

2 hours ago

KTCM 162258Z AUTO 00000KT 10SM BKN039 BKN060 BKN090 19/13 A2982 RMK AO2 SLP102 T01850129 $
Observed
Sep-16 @ 22:58 UTC
Visibility
10 SM
Flight Rules
VFR
Cloud Levels
  • Broken at 3,900' AGL
  • Broken at 6,000' AGL
  • Broken at 9,000' AGL
Temperature
19°C / 66°F
Dewpoint
13°C / 55°F
Humidity
68%
Altimeter
29.82" Hg
Pressure
1009.82 hPa
Previous

3 hours ago

KTCM 162158Z AUTO 22005KT 10SM FEW030 SCT038 19/13 A2982 RMK AO2 SLP102 T01930132 $
Observed
Sep-16 @ 21:58 UTC
Wind
  • 220° at 5 KTS
Visibility
10 SM
Flight Rules
VFR
Cloud Levels
  • Few at 3,000' AGL
  • Scattered at 3,800' AGL
Temperature
19°C / 66°F
Dewpoint
13°C / 55°F
Humidity
68%
Altimeter
29.82" Hg
Pressure
1009.82 hPa